Maximo, Ohio
Current Conditions -  °F | °C
As of 3:51 AM on Monday 24 Nov 2014 (Local Time) from KCAK Reporting Station
Light Rain Light Rain  
Wind Chill: 57°   Ceiling: 1100
Heat Index: 57°   Visibility: 5mi
Dew Point: 53°   Wind: 23mph
Humidity: 87%   Direction: 200°SSW
Pressure: 29.3"   Gusts: 32mph
Location:  40.88°N, 81.17°W
Report Text: KCAK 240851Z 20020G28KT 5SM -RA BR BKN011 OVC017 14/12 A2930 RMK AO2 PK WND 19031/0831 RAB14 SLP917 P0003 60005 T01390117 55015 $
Loading
Personal Weather Stations






























Interactive Weather Map New forecast layout! Learn more

10-Day Weather Forecast

Advertisements
Track Severe Weather on mobile